Time;durP1;ratioP1;P1;durP2;ratioP2;P2;SDS_P1;SDS_P2;PMS_P1;PMS_P2;Temp;Humidity;BMP_temperature;BMP_pressure;BME280_temperature;BME280_humidity;BME280_pressure;Samples;Min_cycle;Max_cycle;Signal;HPM_P1;HPM_P2
2023/05/14 00:00:10;;;;;;;;;42.50;35.00;;;;;16.54;61.74;101408.81;2072606;28;46061;-65
2023/05/14 00:01:11;;;;;;;;;43.60;36.60;;;;;16.52;61.34;101409.81;2072439;28;47094;-65
2023/05/14 00:02:11;;;;;;;;;40.75;34.50;;;;;16.49;61.48;101406.28;2072620;28;45880;-65
2023/05/14 00:03:12;;;;;;;;;40.50;34.75;;;;;16.49;61.87;101403.59;2072372;28;45781;-65
2023/05/14 00:04:12;;;;;;;;;40.25;35.00;;;;;16.49;62.19;101408.06;2071777;28;45542;-65
2023/05/14 00:05:12;;;;;;;;;41.75;35.50;;;;;16.48;61.89;101409.88;2069792;28;45838;-65
2023/05/14 00:06:13;;;;;;;;;40.25;34.50;;;;;16.47;62.06;101412.63;2072820;28;45532;-63
2023/05/14 00:07:14;;;;;;;;;40.80;35.80;;;;;16.48;61.81;101417.91;2072046;28;47877;-64
2023/05/14 00:08:14;;;;;;;;;43.75;36.00;;;;;16.48;61.82;101406.34;2072560;28;46567;-64
2023/05/14 00:09:15;;;;;;;;;42.00;35.75;;;;;16.47;61.49;101413.50;2072445;28;44957;-65
2023/05/14 00:10:17;;;;;;;;;43.00;36.50;;;;;16.46;61.75;101410.88;2072480;28;46041;-65
2023/05/14 00:11:18;;;;;;;;;43.80;36.40;;;;;16.45;61.53;101415.34;2071791;28;46278;-65
2023/05/14 00:12:18;;;;;;;;;39.50;33.50;;;;;16.43;61.84;101414.53;2071836;28;46336;-65
2023/05/14 00:13:19;;;;;;;;;41.75;35.50;;;;;16.42;61.68;101410.13;2062208;28;46054;-65
2023/05/14 00:14:19;;;;;;;;;41.75;34.00;;;;;16.41;61.85;101413.72;2056262;28;45136;-64
2023/05/14 00:15:20;;;;;;;;;42.25;36.75;;;;;16.39;61.53;101404.88;2068649;28;46029;-64
2023/05/14 00:16:20;;;;;;;;;39.75;33.25;;;;;16.36;61.98;101407.63;2072512;28;45928;-65
2023/05/14 00:17:21;;;;;;;;;42.75;35.25;;;;;16.37;61.76;101413.84;2072487;28;45030;-66
2023/05/14 00:18:21;;;;;;;;;43.40;36.80;;;;;16.36;61.64;101414.78;2072272;28;45612;-64
2023/05/14 00:19:22;;;;;;;;;41.00;35.00;;;;;16.34;61.60;101408.63;2072856;28;45438;-64
2023/05/14 00:20:22;;;;;;;;;38.25;32.75;;;;;16.33;62.08;101405.06;2072377;28;45912;-65
2023/05/14 00:21:23;;;;;;;;;39.25;32.50;;;;;16.34;62.01;101406.81;2072834;28;45913;-64
2023/05/14 00:22:23;;;;;;;;;42.75;36.00;;;;;16.36;61.85;101404.06;2072916;28;46292;-65
2023/05/14 00:23:24;;;;;;;;;41.75;36.25;;;;;16.37;62.02;101408.50;2072452;28;48826;-64
2023/05/14 00:24:24;;;;;;;;;43.00;35.50;;;;;16.36;62.11;101402.28;2072356;28;45588;-65
2023/05/14 00:25:24;;;;;;;;;46.25;38.00;;;;;16.38;62.17;101407.56;2073154;28;46009;-64
2023/05/14 00:26:25;;;;;;;;;36.75;33.00;;;;;16.38;62.01;101411.13;2072504;28;47039;-65
2023/05/14 00:27:25;;;;;;;;;41.50;33.75;;;;;16.40;61.49;101411.09;2079588;28;46725;-64
2023/05/14 00:28:25;;;;;;;;;43.75;35.75;;;;;16.40;61.63;101409.28;2080232;28;46092;-65
2023/05/14 00:29:26;;;;;;;;;40.00;34.50;;;;;16.41;61.97;101403.00;2072670;28;45261;-64
2023/05/14 00:30:26;;;;;;;;;40.00;34.75;;;;;16.40;61.43;101409.28;2072428;28;46716;-64
2023/05/14 00:31:26;;;;;;;;;41.50;34.75;;;;;16.40;61.78;101395.91;2072189;28;46401;-64
2023/05/14 00:32:27;;;;;;;;;40.00;34.00;;;;;16.41;61.63;101403.00;2072026;28;46720;-66
2023/05/14 00:33:27;;;;;;;;;43.50;34.75;;;;;16.41;61.89;101403.00;2072033;28;46084;-65
2023/05/14 00:34:27;;;;;;;;;38.75;34.25;;;;;16.41;61.40;101402.13;2072630;28;45925;-65
2023/05/14 00:35:28;;;;;;;;;40.25;35.50;;;;;16.41;61.53;101399.44;2073256;28;45627;-65
2023/05/14 00:36:28;;;;;;;;;40.25;35.00;;;;;16.39;61.90;101396.84;2072178;28;46341;-64
2023/05/14 00:37:28;;;;;;;;;44.00;35.75;;;;;16.37;61.44;101390.63;2072434;28;45845;-64
2023/05/14 00:38:29;;;;;;;;;39.25;34.00;;;;;16.35;61.34;101394.28;2072259;28;45346;-64
2023/05/14 00:39:29;;;;;;;;;44.75;35.25;;;;;16.31;61.51;101385.50;2072471;28;46060;-65
2023/05/14 00:40:30;;;;;;;;;47.50;38.75;;;;;16.26;61.46;101390.16;2072231;28;45365;-64
2023/05/14 00:41:30;;;;;;;;;44.00;37.00;;;;;16.20;61.45;101387.66;2071829;28;45765;-65
2023/05/14 00:42:30;;;;;;;;;46.00;38.00;;;;;16.18;61.98;101381.50;2072364;28;44993;-65
2023/05/14 00:43:32;;;;;;;;;42.50;34.50;;;;;16.14;62.23;101380.72;2072120;28;46276;-65
2023/05/14 00:44:32;;;;;;;;;44.80;37.40;;;;;16.13;61.71;101387.03;2071627;28;47016;-65
2023/05/14 00:45:32;;;;;;;;;43.25;36.00;;;;;16.11;62.33;101393.31;2071608;28;45893;-65
2023/05/14 00:46:33;;;;;;;;;44.50;36.25;;;;;16.11;61.83;101385.28;2072046;28;46697;-64
2023/05/14 00:47:38;;;;;;;;;45.50;38.25;;;;;16.11;62.01;101390.66;2073192;28;45064;-66
2023/05/14 00:48:38;;;;;;;;;45.00;37.60;;;;;16.11;61.80;101387.97;2071976;28;45792;-65
2023/05/14 00:49:40;;;;;;;;;44.00;37.25;;;;;16.10;62.11;101394.25;2071343;28;46572;-65
2023/05/14 00:50:41;;;;;;;;;45.40;37.40;;;;;16.09;62.04;101388.03;2080387;28;46052;-65
2023/05/14 00:51:45;;;;;;;;;44.20;37.00;;;;;16.10;62.54;101383.53;2079906;28;46561;-65
2023/05/14 00:52:46;;;;;;;;;43.00;35.60;;;;;16.10;62.12;101383.53;2071979;28;45647;-64
2023/05/14 00:53:47;;;;;;;;;44.25;37.25;;;;;16.10;62.39;101386.22;2072199;28;46323;-65
2023/05/14 00:54:48;;;;;;;;;45.80;38.20;;;;;16.11;61.82;101382.63;2072309;28;46796;-65
2023/05/14 00:55:49;;;;;;;;;41.75;35.75;;;;;16.11;62.27;101388.84;2072102;28;45421;-66
2023/05/14 00:56:49;;;;;;;;;46.50;38.50;;;;;16.12;62.41;101387.03;2072390;28;45139;-65
2023/05/14 00:57:52;;;;;;;;;44.00;37.75;;;;;16.13;62.00;101381.66;2071680;28;45059;-65
2023/05/14 00:58:52;;;;;;;;;45.20;37.00;;;;;16.16;62.20;101391.38;2072360;28;45302;-65
2023/05/14 00:59:52;;;;;;;;;50.00;40.75;;;;;16.18;61.91;101387.72;2071905;28;46596;-64
2023/05/14 01:00:53;;;;;;;;;46.00;38.00;;;;;16.19;61.77;101389.47;2072336;28;45720;-64
2023/05/14 01:01:53;;;;;;;;;44.00;37.50;;;;;16.19;62.19;101386.78;2071487;28;47303;-66
2023/05/14 01:02:54;;;;;;;;;45.00;35.75;;;;;16.19;62.21;101386.78;2071342;28;46607;-65
2023/05/14 01:03:56;;;;;;;;;44.50;37.50;;;;;16.19;61.64;101383.25;2072012;28;45734;-65
2023/05/14 01:04:57;;;;;;;;;39.80;34.00;;;;;16.16;62.07;101378.88;2071790;28;45440;-65
2023/05/14 01:06:12;;;;;;;;;43.25;36.75;;;;;16.16;62.05;101378.00;2070833;28;45951;-64
2023/05/14 01:07:40;;;;;;;;;45.40;37.60;;;;;16.13;61.67;101381.66;2072118;28;45535;-64
2023/05/14 01:08:43;;;;;;;;;45.40;38.00;;;;;16.10;62.19;101375.50;2071509;28;46411;-64
2023/05/14 01:10:04;;;;;;;;;45.20;38.40;;;;;16.08;62.45;101375.56;2072128;28;45952;-64
2023/05/14 01:11:20;;;;;;;;;46.00;37.80;;;;;16.06;61.81;101373.88;2072236;28;45584;-65
2023/05/14 01:12:35;;;;;;;;;46.60;39.60;;;;;16.03;62.34;101371.31;2072030;28;46577;-64
2023/05/14 01:14:02;;;;;;;;;44.40;37.40;;;;;15.99;62.28;101372.31;2079880;28;46899;-65
2023/05/14 01:15:18;;;;;;;;;44.00;37.00;;;;;15.96;62.40;101373.31;2075116;28;46108;-65
2023/05/14 01:16:19;;;;;;;;;43.80;37.40;;;;;15.92;62.16;101379.69;2070741;28;45143;-66
2023/05/14 01:17:22;;;;;;;;;43.50;36.75;;;;;15.89;62.32;101382.47;2071849;28;46008;-64
2023/05/14 01:18:24;;;;;;;;;44.20;36.80;;;;;15.86;62.44;101369.19;2071968;28;46392;-64
2023/05/14 01:19:46;;;;;;;;;47.40;40.40;;;;;15.84;62.53;101371.91;2071420;28;45266;-64
2023/05/14 01:20:50;;;;;;;;;46.40;37.60;;;;;15.83;62.32;101372.84;2072020;28;45528;-64
2023/05/14 01:21:50;;;;;;;;;41.40;34.80;;;;;15.83;62.48;101370.16;2071841;28;46638;-64
2023/05/14 01:22:51;;;;;;;;;45.50;38.75;;;;;15.84;62.55;101379.06;2072133;28;45601;-65
2023/05/14 01:23:51;;;;;;;;;46.00;38.00;;;;;15.83;62.52;101375.50;2071886;28;47227;-65
2023/05/14 01:24:51;;;;;;;;;41.75;35.00;;;;;15.84;62.61;101382.63;2071834;28;47490;-64
2023/05/14 01:25:51;;;;;;;;;47.50;39.75;;;;;15.84;62.61;101379.06;2072007;28;46259;-64
2023/05/14 01:26:58;;;;;;;;;47.25;38.00;;;;;15.83;62.80;101380.00;2071336;28;45701;-65
2023/05/14 01:28:25;;;;;;;;;45.80;38.00;;;;;15.80;62.52;101377.44;2070823;28;45564;-64
2023/05/14 01:29:27;;;;;;;;;43.20;34.60;;;;;15.77;62.77;101382.88;2065126;28;45742;-65
2023/05/14 01:30:35;;;;;;;;;43.60;36.60;;;;;15.77;62.62;101380.22;2064555;28;46141;-67
2023/05/14 01:31:39;;;;;;;;;46.00;37.40;;;;;15.76;62.86;101384.69;2068378;28;46368;-64
2023/05/14 01:32:43;;;;;;;;;47.20;39.20;;;;;15.75;62.98;101384.72;2072817;28;45435;-65
2023/05/14 01:33:47;;;;;;;;;44.40;37.40;;;;;15.74;62.57;101385.63;2071108;28;47984;-66
2023/05/14 01:34:50;;;;;;;;;45.80;38.00;;;;;15.72;62.97;101383.00;2072382;28;45657;-64
2023/05/14 01:35:53;;;;;;;;;44.00;37.80;;;;;15.70;62.96;101376.84;2072224;28;45981;-66
2023/05/14 01:36:55;;;;;;;;;44.20;38.00;;;;;15.69;63.04;101384.91;2071834;28;45574;-65
2023/05/14 01:37:59;;;;;;;;;45.00;37.80;;;;;15.68;63.26;101377.81;2072476;28;45192;-65
2023/05/14 01:39:00;;;;;;;;;45.40;37.60;;;;;15.67;63.10;101379.63;2072231;28;45348;-64
2023/05/14 01:40:02;;;;;;;;;41.80;35.60;;;;;15.68;62.64;101376.00;2073324;28;46230;-65
2023/05/14 01:41:04;;;;;;;;;45.80;37.60;;;;;15.68;62.95;101375.16;2072119;28;45146;-65
2023/05/14 01:42:06;;;;;;;;;46.20;38.80;;;;;15.68;63.35;101370.66;2071369;28;46515;-64
2023/05/14 01:43:07;;;;;;;;;49.20;39.00;;;;;15.68;63.29;101375.16;2072340;28;46603;-64
2023/05/14 01:44:08;;;;;;;;;48.75;40.00;;;;;15.69;63.29;101375.09;2071509;28;45939;-64
2023/05/14 01:45:09;;;;;;;;;46.80;39.40;;;;;15.69;62.85;101368.88;2071805;28;45679;-63
2023/05/14 01:46:09;;;;;;;;;44.00;37.00;;;;;15.69;63.46;101371.53;2071849;28;45745;-63
2023/05/14 01:47:10;;;;;;;;;44.25;37.25;;;;;15.70;63.15;101360.78;2071986;28;46232;-64
2023/05/14 01:48:11;;;;;;;;;41.50;36.75;;;;;15.70;63.40;101373.28;2071194;28;46425;-65
2023/05/14 01:49:12;;;;;;;;;49.00;38.40;;;;;15.70;63.31;101371.50;2071763;28;45294;-65
2023/05/14 01:50:12;;;;;;;;;45.75;38.75;;;;;15.69;63.20;101371.53;2072049;28;45630;-64
2023/05/14 01:51:13;;;;;;;;;46.25;38.75;;;;;15.69;63.19;101375.09;2072245;28;45738;-65
2023/05/14 01:52:13;;;;;;;;;45.00;36.80;;;;;15.69;63.38;101383.13;2071462;28;46721;-65
2023/05/14 01:53:14;;;;;;;;;44.75;36.75;;;;;15.68;63.22;101375.16;2071632;28;46802;-64
2023/05/14 01:54:14;;;;;;;;;44.00;37.25;;;;;15.69;63.16;101377.75;2071867;28;46004;-64
2023/05/14 01:55:15;;;;;;;;;45.50;38.00;;;;;15.69;63.28;101377.75;2071908;28;46257;-64
2023/05/14 01:56:17;;;;;;;;;48.50;41.25;;;;;15.69;63.30;101368.88;2070950;28;45418;-64
2023/05/14 01:57:17;;;;;;;;;49.20;39.00;;;;;15.69;63.34;101379.56;2063129;28;46767;-64
2023/05/14 01:58:17;;;;;;;;;46.75;38.25;;;;;15.68;63.58;101373.34;2071965;28;45988;-66
2023/05/14 01:59:17;;;;;;;;;44.00;37.25;;;;;15.68;62.97;101380.50;2072095;28;45632;-65
2023/05/14 02:00:19;;;;;;;;;46.00;39.00;;;;;15.68;63.16;101378.69;2071642;28;45747;-65
2023/05/14 02:01:19;;;;;;;;;51.00;41.60;;;;;15.69;63.30;101375.09;2064114;28;46107;-65
2023/05/14 02:02:20;;;;;;;;;47.50;39.50;;;;;15.69;63.56;101377.75;2067014;28;45296;-65
2023/05/14 02:03:20;;;;;;;;;40.25;34.50;;;;;15.69;63.59;101375.09;2071301;28;45614;-65
2023/05/14 02:04:20;;;;;;;;;45.75;38.00;;;;;15.70;63.53;101375.97;2071530;28;45793;-65
2023/05/14 02:05:21;;;;;;;;;44.25;38.00;;;;;15.69;63.36;101375.09;2076944;28;46238;-64
2023/05/14 02:06:21;;;;;;;;;46.00;38.50;;;;;15.70;63.04;101373.28;2072142;28;45808;-64
2023/05/14 02:07:21;;;;;;;;;49.00;40.00;;;;;15.70;63.37;101375.97;2071675;28;47118;-64
2023/05/14 02:08:22;;;;;;;;;46.67;39.33;;;;;15.69;63.67;101368.88;2072070;28;46185;-64
2023/05/14 02:09:23;;;;;;;;;46.50;39.75;;;;;15.67;63.27;101368.91;2072036;28;45592;-65
2023/05/14 02:10:23;;;;;;;;;43.75;37.00;;;;;15.66;63.63;101366.28;2071663;28;45670;-64
2023/05/14 02:11:23;;;;;;;;;42.00;35.00;;;;;15.65;63.21;101370.78;2071378;28;46321;-64
2023/05/14 02:12:23;;;;;;;;;44.75;38.25;;;;;15.65;63.54;101373.44;2062510;28;46954;-64
2023/05/14 02:13:25;;;;;;;;;45.25;37.75;;;;;15.64;63.74;101370.81;2063250;28;45648;-66
2023/05/14 02:14:25;;;;;;;;;47.80;39.80;;;;;15.64;63.24;101369.03;2072021;28;48092;-64
2023/05/14 02:15:26;;;;;;;;;45.50;37.00;;;;;15.65;63.62;101373.44;2071452;28;45860;-64
2023/05/14 02:16:26;;;;;;;;;47.75;40.00;;;;;15.66;63.89;101371.66;2079477;28;47470;-65
2023/05/14 02:17:26;;;;;;;;;48.75;40.25;;;;;15.65;63.90;101373.44;2079432;28;45809;-65
2023/05/14 02:18:26;;;;;;;;;45.50;37.50;;;;;15.65;63.54;101367.22;2072298;28;45056;-64
2023/05/14 02:19:27;;;;;;;;;48.00;39.50;;;;;15.66;63.70;101369.84;2071622;28;45662;-64
2023/05/14 02:20:27;;;;;;;;;46.75;37.75;;;;;15.65;63.34;101370.78;2070436;28;45629;-66
2023/05/14 02:21:27;;;;;;;;;47.75;40.00;;;;;15.64;63.51;101370.81;2071066;28;45734;-65
2023/05/14 02:22:28;;;;;;;;;48.50;40.50;;;;;15.63;63.36;101369.06;2071273;28;45874;-66
2023/05/14 02:23:28;;;;;;;;;50.25;42.25;;;;;15.62;63.57;101370.84;2070869;28;45952;-65
2023/05/14 02:24:28;;;;;;;;;45.25;37.75;;;;;15.59;63.52;101369.16;2071495;28;46278;-64
2023/05/14 02:25:29;;;;;;;;;49.00;41.25;;;;;15.58;63.22;101367.38;2070495;28;45858;-62
2023/05/14 02:26:29;;;;;;;;;47.25;38.00;;;;;15.57;63.70;101367.41;2071075;28;45537;-64
2023/05/14 02:27:29;;;;;;;;;49.00;38.00;;;;;15.56;63.42;101360.31;2071176;28;45693;-67
2023/05/14 02:28:30;;;;;;;;;51.50;40.50;;;;;15.55;63.59;101370.16;2070486;28;45125;-65
2023/05/14 02:29:30;;;;;;;;;49.00;40.25;;;;;15.56;63.41;101363.00;2071128;28;46268;-64
2023/05/14 02:30:30;;;;;;;;;46.75;39.25;;;;;15.56;63.80;101363.88;2072474;28;45537;-65
2023/05/14 02:31:31;;;;;;;;;44.00;37.75;;;;;15.56;64.00;101361.19;2071914;28;45547;-64
2023/05/14 02:32:31;;;;;;;;;45.50;39.00;;;;;15.57;63.54;101359.41;2072468;28;45714;-63
2023/05/14 02:33:31;;;;;;;;;44.00;37.00;;;;;15.56;63.71;101355.84;2071877;28;46159;-65
2023/05/14 02:34:33;;;;;;;;;46.00;37.75;;;;;15.54;63.93;101365.72;2072185;28;45758;-63
2023/05/14 02:35:33;;;;;;;;;43.60;35.60;;;;;15.53;63.93;101355.97;2078714;28;46282;-64
2023/05/14 02:36:34;;;;;;;;;42.50;37.00;;;;;15.54;63.38;101362.19;2075699;28;45792;-65
2023/05/14 02:37:34;;;;;;;;;44.75;35.50;;;;;15.54;63.90;101365.72;2072294;28;45136;-65
2023/05/14 02:38:34;;;;;;;;;44.00;36.25;;;;;15.52;63.83;101359.56;2071844;28;46697;-62
2023/05/14 02:39:35;;;;;;;;;39.25;33.75;;;;;15.51;63.72;101357.81;2071895;28;46747;-65
2023/05/14 02:40:35;;;;;;;;;39.50;34.75;;;;;15.53;63.76;101365.78;2064358;28;45531;-64
2023/05/14 02:41:36;;;;;;;;;46.00;37.00;;;;;15.52;63.62;101356.00;2063520;28;45768;-66
2023/05/14 02:42:36;;;;;;;;;40.50;34.75;;;;;15.53;63.51;101357.75;2072702;28;45795;-65
2023/05/14 02:43:36;;;;;;;;;39.75;34.50;;;;;15.53;63.56;101363.09;2072433;28;45766;-66
2023/05/14 02:44:37;;;;;;;;;41.75;35.00;;;;;15.53;63.54;101358.63;2064413;28;45406;-63
2023/05/14 02:45:37;;;;;;;;;41.75;35.75;;;;;15.54;63.84;101362.19;2064080;28;45603;-65
2023/05/14 02:46:37;;;;;;;;;43.00;37.25;;;;;15.53;63.85;101363.97;2072223;28;45944;-65
2023/05/14 02:47:38;;;;;;;;;42.25;35.50;;;;;15.54;63.79;101363.06;2071931;28;46494;-65
2023/05/14 02:48:38;;;;;;;;;39.25;35.00;;;;;15.53;63.61;101358.63;2072086;28;45871;-64
2023/05/14 02:49:39;;;;;;;;;47.25;37.75;;;;;15.53;63.70;101365.78;2064245;28;45611;-64
2023/05/14 02:50:39;;;;;;;;;42.50;36.00;;;;;15.53;63.41;101363.97;2063787;28;47067;-64
2023/05/14 02:51:39;;;;;;;;;42.25;34.25;;;;;15.53;63.64;101371.13;2072323;28;46676;-64
2023/05/14 02:52:40;;;;;;;;;41.50;35.75;;;;;15.53;63.62;101366.66;2073968;28;45090;-64
2023/05/14 02:53:40;;;;;;;;;38.00;32.00;;;;;15.52;63.77;101359.56;2074262;28;45433;-64
2023/05/14 02:54:40;;;;;;;;;38.00;34.00;;;;;15.50;63.56;101364.09;2073705;28;46322;-65
2023/05/14 02:55:41;;;;;;;;;41.25;35.00;;;;;15.49;63.91;101362.31;2073563;28;46825;-64
2023/05/14 02:56:41;;;;;;;;;42.50;36.00;;;;;15.49;63.70;101358.75;2072923;28;47133;-64
2023/05/14 02:57:41;;;;;;;;;44.75;35.50;;;;;15.46;63.73;101362.41;2073085;28;45915;-64
2023/05/14 02:58:42;;;;;;;;;38.00;33.50;;;;;15.44;63.87;101369.63;2072834;28;45103;-63
2023/05/14 02:59:42;;;;;;;;;42.25;35.00;;;;;15.42;63.78;101371.47;2072701;28;46352;-64
2023/05/14 03:00:42;;;;;;;;;43.25;35.25;;;;;15.39;63.64;101363.53;2072559;28;45578;-63
2023/05/14 03:01:43;;;;;;;;;37.25;33.00;;;;;15.36;63.33;101358.25;2064105;28;45424;-63
2023/05/14 03:02:43;;;;;;;;;39.75;34.00;;;;;15.35;63.73;101358.31;2072057;28;47130;-63
2023/05/14 03:03:43;;;;;;;;;41.25;34.25;;;;;15.34;63.80;101360.13;2072236;28;45147;-64
2023/05/14 03:04:44;;;;;;;;;37.25;34.00;;;;;15.33;63.65;101369.06;2072704;28;45558;-64
2023/05/14 03:05:44;;;;;;;;;41.50;34.00;;;;;15.33;63.83;101366.38;2072617;28;45602;-64
2023/05/14 03:06:44;;;;;;;;;38.50;32.75;;;;;15.32;63.80;101364.66;2073250;28;45577;-65
2023/05/14 03:07:45;;;;;;;;;37.25;33.50;;;;;15.30;63.35;101367.38;2073092;28;46368;-65
2023/05/14 03:08:45;;;;;;;;;38.75;32.00;;;;;15.30;63.72;101369.16;2072863;28;45401;-65
2023/05/14 03:09:45;;;;;;;;;38.00;32.00;;;;;15.27;63.47;101366.59;2072629;28;47287;-64
2023/05/14 03:10:46;;;;;;;;;39.50;35.25;;;;;15.24;63.73;101377.34;2075403;28;45875;-65
2023/05/14 03:11:46;;;;;;;;;36.75;32.75;;;;;15.23;63.52;101372.94;2072795;28;45035;-65
2023/05/14 03:12:46;;;;;;;;;43.75;35.75;;;;;15.20;63.87;101373.03;2073090;28;45053;-64
2023/05/14 03:13:47;;;;;;;;;38.00;33.00;;;;;15.20;63.69;101367.69;2072857;28;45582;-63
2023/05/14 03:14:47;;;;;;;;;37.75;33.25;;;;;15.19;63.96;101368.63;2073000;28;46455;-62
2023/05/14 03:15:47;;;;;;;;;40.25;33.50;;;;;15.17;63.89;101366.00;2072038;28;46614;-64
2023/05/14 03:16:48;;;;;;;;;36.00;32.25;;;;;15.16;63.82;101371.38;2068206;28;45404;-65
2023/05/14 03:17:49;;;;;;;;;41.25;34.25;;;;;15.15;63.55;101367.84;2072769;28;45670;-66
2023/05/14 03:18:49;;;;;;;;;42.25;34.50;;;;;15.15;63.60;101369.66;2072495;28;47292;-63
2023/05/14 03:19:49;;;;;;;;;36.50;32.50;;;;;15.16;63.58;101369.59;2073157;28;45754;-63
2023/05/14 03:20:50;;;;;;;;;40.00;32.50;;;;;15.16;63.84;101366.91;2072607;28;46293;-63
2023/05/14 03:21:50;;;;;;;;;38.25;34.50;;;;;15.16;63.88;101374.94;2072341;28;45822;-65
2023/05/14 03:22:51;;;;;;;;;35.75;31.25;;;;;15.16;63.56;101369.59;2072449;28;46226;-64
2023/05/14 03:23:52;;;;;;;;;37.50;31.75;;;;;15.16;63.97;101364.25;2072781;28;45207;-65
2023/05/14 03:24:52;;;;;;;;;37.60;33.00;;;;;15.15;63.82;101367.84;2073044;28;46091;-64
2023/05/14 03:25:52;;;;;;;;;38.75;32.75;;;;;15.14;63.90;101368.78;2073471;28;45571;-64
2023/05/14 03:26:53;;;;;;;;;39.75;34.00;;;;;15.12;64.07;101369.72;2072104;28;46791;-64
2023/05/14 03:27:53;;;;;;;;;42.25;33.00;;;;;15.10;63.98;101372.44;2072931;28;45920;-65
2023/05/14 03:28:53;;;;;;;;;35.00;31.50;;;;;15.09;63.76;101367.13;2072340;28;47155;-65
2023/05/14 03:29:54;;;;;;;;;44.75;36.75;;;;;15.06;64.08;101373.47;2072727;28;46307;-64
2023/05/14 03:30:54;;;;;;;;;36.50;31.75;;;;;15.05;64.29;101377.06;2073293;28;45727;-66
2023/05/14 03:31:55;;;;;;;;;34.50;31.00;;;;;15.05;63.96;101370.84;2072448;28;46702;-65
2023/05/14 03:32:55;;;;;;;;;41.25;33.75;;;;;15.02;64.23;101375.34;2072841;28;46409;-65
2023/05/14 03:33:56;;;;;;;;;36.50;32.00;;;;;15.04;63.96;101377.09;2072469;28;45561;-64
2023/05/14 03:34:56;;;;;;;;;39.00;32.50;;;;;15.04;64.06;101371.75;2073159;28;45124;-64
2023/05/14 03:35:56;;;;;;;;;41.25;34.75;;;;;15.06;64.09;101375.25;2073204;28;46277;-64
2023/05/14 03:36:57;;;;;;;;;43.00;36.00;;;;;15.06;64.44;101372.59;2072745;28;45845;-62
2023/05/14 03:37:58;;;;;;;;;41.75;35.50;;;;;15.05;64.57;101363.69;2073186;28;45968;-64
2023/05/14 03:38:58;;;;;;;;;43.00;33.80;;;;;15.06;64.25;101367.25;2073070;28;45821;-64
2023/05/14 03:39:58;;;;;;;;;44.00;38.00;;;;;15.06;64.06;101364.56;2072427;28;46273;-65
2023/05/14 03:40:59;;;;;;;;;43.25;35.00;;;;;15.06;64.68;101365.44;2071821;28;45200;-64
2023/05/14 03:41:59;;;;;;;;;42.25;35.50;;;;;15.05;64.66;101370.84;2056172;28;46034;-64
2023/05/14 03:43:00;;;;;;;;;40.75;35.00;;;;;15.03;64.55;101360.19;2064164;28;46208;-64
2023/05/14 03:44:00;;;;;;;;;36.75;32.50;;;;;15.03;64.45;101365.53;2073096;28;45756;-64
2023/05/14 03:45:00;;;;;;;;;41.50;34.75;;;;;14.99;64.42;101367.44;2072973;28;45391;-65
2023/05/14 03:46:01;;;;;;;;;39.75;35.00;;;;;14.99;64.36;101366.53;2072278;28;45572;-64
2023/05/14 03:47:01;;;;;;;;;41.75;36.00;;;;;14.99;64.53;101363.84;2072048;28;47039;-65
2023/05/14 03:48:02;;;;;;;;;39.75;34.25;;;;;14.98;64.44;101364.78;2072929;28;45872;-65
2023/05/14 03:49:02;;;;;;;;;40.25;34.00;;;;;15.00;64.57;101362.97;2073102;28;46836;-64
2023/05/14 03:50:02;;;;;;;;;38.25;33.75;;;;;15.00;64.49;101360.28;2073067;28;46501;-66
2023/05/14 03:51:03;;;;;;;;;46.00;37.00;;;;;14.99;64.87;101369.19;2072823;28;46659;-64
2023/05/14 03:52:03;;;;;;;;;45.25;37.75;;;;;14.99;64.54;101364.75;2072661;28;46096;-64
2023/05/14 03:53:04;;;;;;;;;37.00;32.75;;;;;15.01;64.56;101370.94;2072496;28;46754;-64
2023/05/14 03:54:04;;;;;;;;;37.00;33.25;;;;;15.02;64.99;101366.47;2072705;28;45578;-64
2023/05/14 03:55:05;;;;;;;;;43.75;35.50;;;;;15.02;64.84;101366.47;2072641;28;47935;-64
2023/05/14 03:56:05;;;;;;;;;42.50;34.00;;;;;15.02;64.68;101362.00;2072572;28;45897;-64
2023/05/14 03:57:06;;;;;;;;;46.00;38.00;;;;;15.01;65.04;101372.72;2072722;28;45821;-64
2023/05/14 03:58:12;;;;;;;;;41.50;35.25;;;;;14.99;64.72;101367.44;2072670;28;46709;-65
2023/05/14 03:59:12;;;;;;;;;42.60;34.40;;;;;14.98;64.64;101368.31;2072847;28;45782;-65
2023/05/14 04:00:13;;;;;;;;;43.50;36.00;;;;;14.96;65.04;101364.81;2072790;28;45052;-64
2023/05/14 04:01:13;;;;;;;;;43.60;36.20;;;;;14.97;64.63;101371.03;2072969;28;46018;-63
2023/05/14 04:02:14;;;;;;;;;44.25;36.00;;;;;14.97;64.81;101376.38;2071795;28;45417;-64
2023/05/14 04:03:14;;;;;;;;;44.25;37.00;;;;;14.96;65.21;101366.63;2072307;28;45370;-64
2023/05/14 04:04:15;;;;;;;;;41.00;35.00;;;;;14.95;65.30;101365.75;2080403;28;46496;-65
2023/05/14 04:05:15;;;;;;;;;46.50;38.00;;;;;14.96;64.86;101363.94;2077934;28;45794;-64
2023/05/14 04:06:15;;;;;;;;;42.25;35.00;;;;;14.96;65.33;101364.81;2072795;28;47012;-65
2023/05/14 04:07:16;;;;;;;;;42.75;36.00;;;;;14.96;65.37;101369.28;2073629;28;45952;-64
2023/05/14 04:08:16;;;;;;;;;44.75;37.00;;;;;14.96;65.38;101375.50;2073607;28;46595;-64
2023/05/14 04:09:16;;;;;;;;;47.75;38.75;;;;;14.95;64.97;101368.41;2073511;28;45434;-64
2023/05/14 04:10:17;;;;;;;;;39.75;34.75;;;;;14.96;65.14;101377.31;2073210;28;45972;-65
2023/05/14 04:11:17;;;;;;;;;42.25;34.00;;;;;14.96;65.09;101377.31;2072272;28;46724;-64
2023/05/14 04:12:17;;;;;;;;;43.75;37.00;;;;;14.94;65.53;101376.50;2071136;28;46650;-64
2023/05/14 04:13:18;;;;;;;;;43.25;36.25;;;;;14.92;65.22;101368.53;2071230;28;45984;-64
2023/05/14 04:14:18;;;;;;;;;38.25;34.00;;;;;14.91;65.45;101374.78;2072355;28;46532;-64
2023/05/14 04:15:18;;;;;;;;;42.00;34.50;;;;;14.92;65.42;101373.00;2071950;28;45742;-64
2023/05/14 04:16:19;;;;;;;;;39.25;32.25;;;;;14.93;65.10;101377.41;2072771;28;46609;-64
2023/05/14 04:17:19;;;;;;;;;32.00;29.00;;;;;14.93;65.53;101370.28;2072599;28;48094;-65
2023/05/14 04:18:19;;;;;;;;;43.25;35.25;;;;;14.93;65.52;101369.41;2072320;28;46598;-64
2023/05/14 04:19:19;;;;;;;;;43.75;35.75;;;;;14.93;65.42;101380.97;2072951;28;45252;-65
2023/05/14 04:20:20;;;;;;;;;43.50;35.50;;;;;14.93;65.70;101374.75;2072848;28;45854;-64
2023/05/14 04:21:20;;;;;;;;;40.25;34.25;;;;;14.90;65.49;101369.50;2072945;28;45991;-64
2023/05/14 04:22:20;;;;;;;;;45.75;38.00;;;;;14.91;65.05;101366.78;2072626;28;46559;-65
2023/05/14 04:23:21;;;;;;;;;44.25;37.00;;;;;14.91;65.11;101369.44;2072930;28;46540;-64
2023/05/14 04:24:21;;;;;;;;;45.75;38.25;;;;;14.91;65.34;101356.09;2072976;28;45585;-65
2023/05/14 04:25:22;;;;;;;;;46.00;36.75;;;;;14.91;65.67;101366.78;2072024;28;46046;-65
2023/05/14 04:26:23;;;;;;;;;45.00;37.60;;;;;14.91;65.84;101361.44;2071803;28;46163;-65
2023/05/14 04:27:23;;;;;;;;;36.75;33.50;;;;;14.91;65.50;101364.09;2072615;28;45769;-64
2023/05/14 04:28:24;;;;;;;;;44.75;37.75;;;;;14.90;65.74;101364.16;2072218;28;46513;-64
2023/05/14 04:29:24;;;;;;;;;41.50;35.00;;;;;14.90;65.20;101366.81;2072736;28;46131;-65
2023/05/14 04:30:25;;;;;;;;;43.00;35.75;;;;;14.89;66.04;101370.41;2072290;28;45499;-64
2023/05/14 04:31:25;;;;;;;;;39.25;34.50;;;;;14.88;65.59;101374.88;2072493;28;46571;-65
2023/05/14 04:32:26;;;;;;;;;44.25;36.00;;;;;14.86;65.92;101365.13;2072692;28;46051;-64
2023/05/14 04:33:26;;;;;;;;;42.50;37.50;;;;;14.84;65.88;101373.19;2072006;28;45841;-65
2023/05/14 04:34:26;;;;;;;;;44.50;35.25;;;;;14.83;66.02;101371.44;2072087;28;45669;-64
2023/05/14 04:35:27;;;;;;;;;45.00;36.75;;;;;14.82;65.60;101372.38;2072164;28;45011;-64
2023/05/14 04:36:27;;;;;;;;;42.00;34.75;;;;;14.83;65.82;101371.44;2066488;28;45558;-64
2023/05/14 04:37:28;;;;;;;;;41.00;34.25;;;;;14.84;65.35;101375.88;2072333;28;45936;-64
2023/05/14 04:38:28;;;;;;;;;41.00;33.00;;;;;14.83;65.60;101374.13;2070690;28;46836;-64